createdAt,value
2022-10-11T00:00:09.413Z,11.11
2022-10-11T00:02:36.215Z,11.05
2022-10-11T00:05:03.609Z,11.12
2022-10-11T00:07:30.428Z,10.96
2022-10-11T00:09:57.284Z,10.87
2022-10-11T00:12:24.123Z,10.81
2022-10-11T00:14:50.960Z,10.82
2022-10-11T00:17:17.810Z,10.79
2022-10-11T00:19:44.646Z,10.86
2022-10-11T00:22:11.424Z,10.75
2022-10-11T00:24:38.320Z,10.77
2022-10-11T00:27:05.172Z,10.62
2022-10-11T00:29:32.028Z,10.63
2022-10-11T00:31:58.828Z,10.57
2022-10-11T00:34:25.813Z,10.44
2022-10-11T00:36:52.673Z,10.37
2022-10-11T00:39:19.592Z,10.33
2022-10-11T00:41:47.923Z,10.27
2022-10-11T00:44:26.079Z,10.06
2022-10-11T00:46:57.279Z,10.06
2022-10-11T00:49:38.346Z,10.06
2022-10-11T00:52:20.636Z,10.05
2022-10-11T00:54:49.014Z,9.95
2022-10-11T00:57:25.150Z,9.92
2022-10-11T00:59:55.140Z,9.94
2022-10-11T01:02:23.646Z,9.86
2022-10-11T01:05:05.672Z,9.86
2022-10-11T01:07:39.398Z,9.71
2022-10-11T01:10:06.441Z,9.71
2022-10-11T01:12:33.939Z,9.73
2022-10-11T01:15:39.612Z,9.54
2022-10-11T01:18:40.751Z,9.60
2022-10-11T01:21:21.896Z,9.60
2022-10-11T01:24:08.601Z,9.43
2022-10-11T01:26:53.703Z,9.53
2022-10-11T01:29:38.732Z,9.53
2022-10-11T01:32:24.596Z,9.51
2022-10-11T01:35:00.385Z,9.52
2022-10-11T01:37:33.141Z,9.51
2022-10-11T01:40:07.754Z,9.42
2022-10-11T01:42:38.574Z,9.51
2022-10-11T01:45:09.452Z,9.50
2022-10-11T01:47:36.567Z,9.48
2022-10-11T01:50:03.802Z,9.43
2022-10-11T01:52:34.173Z,9.41
2022-10-11T01:55:19.670Z,9.31
2022-10-11T01:58:07.127Z,9.35
2022-10-11T02:01:00.201Z,9.20
2022-10-11T02:03:46.654Z,9.21
2022-10-11T02:06:28.190Z,9.11
2022-10-11T02:09:04.460Z,9.12
2022-10-11T02:11:36.431Z,9.16
2022-10-11T02:14:13.971Z,8.92
2022-10-11T02:16:46.424Z,8.96
2022-10-11T02:19:18.751Z,9.04
2022-10-11T02:21:50.143Z,9.05
2022-10-11T02:24:22.262Z,9.05
2022-10-11T02:26:54.262Z,9.04
2022-10-11T02:29:24.451Z,9.04
2022-10-11T02:31:52.268Z,8.99
2022-10-11T02:34:23.310Z,8.99
2022-10-11T02:37:06.209Z,8.95
2022-10-11T02:39:45.819Z,9.02
2022-10-11T02:42:20.739Z,9.00
2022-10-11T02:45:00.868Z,8.94
2022-10-11T02:47:30.355Z,8.95
2022-10-11T02:49:59.896Z,8.91
2022-10-11T02:52:26.948Z,8.84
2022-10-11T02:54:53.836Z,8.88
2022-10-11T02:57:20.662Z,8.93
2022-10-11T02:59:47.706Z,8.88
2022-10-11T03:02:15.042Z,8.93
2022-10-11T03:04:41.875Z,8.84
2022-10-11T03:07:08.746Z,8.98
2022-10-11T03:09:35.784Z,8.95
2022-10-11T03:12:02.816Z,8.95
2022-10-11T03:14:29.772Z,8.98
2022-10-11T03:17:03.959Z,8.90
2022-10-11T03:19:39.075Z,8.99
2022-10-11T03:22:07.557Z,9.06
2022-10-11T03:24:34.411Z,8.93
2022-10-11T03:27:01.152Z,9.05
2022-10-11T03:29:27.947Z,9.13
2022-10-11T03:31:54.910Z,9.20
2022-10-11T03:34:24.048Z,9.17
2022-10-11T03:36:50.996Z,9.17
2022-10-11T03:39:17.947Z,9.22
2022-10-11T03:41:44.742Z,9.35
2022-10-11T03:44:11.603Z,9.41
2022-10-11T03:46:38.476Z,9.42
2022-10-11T03:49:05.301Z,9.57
2022-10-11T03:51:32.408Z,9.53
2022-10-11T03:53:59.190Z,9.65
2022-10-11T03:56:26.062Z,9.71
2022-10-11T03:58:52.857Z,9.79
2022-10-11T04:01:20.214Z,9.73
2022-10-11T04:03:47.083Z,9.86
2022-10-11T04:06:14.071Z,9.80
2022-10-11T04:08:40.910Z,9.86
2022-10-11T04:11:08.085Z,9.85
2022-10-11T04:13:34.867Z,9.90
2022-10-11T04:16:01.984Z,9.97
2022-10-11T04:18:29.218Z,9.99
2022-10-11T04:20:56.194Z,10.00
2022-10-11T04:23:23.020Z,10.00
2022-10-11T04:25:49.779Z,9.99
2022-10-11T04:28:16.670Z,10.09
2022-10-11T04:30:43.561Z,10.10
2022-10-11T04:33:11.643Z,10.01
2022-10-11T04:35:38.498Z,10.12
2022-10-11T04:38:05.799Z,10.09
2022-10-11T04:40:33.312Z,10.15
2022-10-11T04:43:00.508Z,10.17
2022-10-11T04:45:27.360Z,10.09
2022-10-11T04:47:54.171Z,10.15
2022-10-11T04:50:20.954Z,10.18
2022-10-11T04:52:47.935Z,10.18
2022-10-11T04:55:14.739Z,10.18
2022-10-11T04:57:41.645Z,10.15
2022-10-11T05:00:09.169Z,10.02
2022-10-11T05:02:36.081Z,10.00
2022-10-11T05:05:04.006Z,9.92
2022-10-11T05:07:30.804Z,9.95
2022-10-11T05:09:58.042Z,9.88
2022-10-11T05:12:25.088Z,9.91
2022-10-11T05:14:51.979Z,9.79
2022-10-11T05:17:18.817Z,9.94
2022-10-11T05:19:45.828Z,9.92
2022-10-11T05:22:12.619Z,9.91
2022-10-11T05:24:39.436Z,9.97
2022-10-11T05:27:06.704Z,10.05
2022-10-11T05:29:33.916Z,10.09
2022-10-11T05:32:01.207Z,10.13
2022-10-11T05:34:28.148Z,10.12
2022-10-11T05:36:56.583Z,10.28
2022-10-11T05:39:25.434Z,10.27
2022-10-11T05:41:52.280Z,10.45
2022-10-11T05:44:19.112Z,10.51
2022-10-11T05:46:45.846Z,10.55
2022-10-11T05:49:12.683Z,10.61
2022-10-11T05:51:39.497Z,10.54
2022-10-11T05:54:06.286Z,10.63
2022-10-11T05:56:33.073Z,10.65
2022-10-11T05:59:02.360Z,10.65
2022-10-11T06:01:29.677Z,10.73
2022-10-11T06:03:56.522Z,10.85
2022-10-11T06:06:23.804Z,10.89
2022-10-11T06:08:50.867Z,10.92
2022-10-11T06:11:20.962Z,10.98
2022-10-11T06:13:48.714Z,11.14
2022-10-11T06:16:16.369Z,11.23
2022-10-11T06:18:43.627Z,11.33
2022-10-11T06:21:10.540Z,11.43
2022-10-11T06:23:37.370Z,11.50
2022-10-11T06:26:10.102Z,11.55
2022-10-11T06:28:37.892Z,11.61
2022-10-11T06:31:06.169Z,11.77
2022-10-11T06:33:33.688Z,11.86
2022-10-11T06:36:03.318Z,12.08
2022-10-11T06:38:31.001Z,12.18
2022-10-11T06:40:58.212Z,12.31
2022-10-11T06:43:25.422Z,12.37
2022-10-11T06:45:52.237Z,12.49
2022-10-11T06:48:19.012Z,12.44
2022-10-11T06:50:59.712Z,12.44
2022-10-11T06:53:28.044Z,12.28
2022-10-11T06:56:01.075Z,12.28
2022-10-11T06:58:28.545Z,12.35
2022-10-11T07:00:59.329Z,12.37
2022-10-11T07:03:26.263Z,12.33
2022-10-11T07:05:53.390Z,12.50
2022-10-11T07:08:20.211Z,12.63
2022-10-11T07:10:50.062Z,12.92
2022-10-11T07:13:17.428Z,13.21
2022-10-11T07:15:44.307Z,13.46
2022-10-11T07:18:11.098Z,13.54
2022-10-11T07:20:38.206Z,13.60
2022-10-11T07:23:05.024Z,13.57
2022-10-11T07:25:31.835Z,13.68
2022-10-11T07:27:58.686Z,13.85
2022-10-11T07:30:25.499Z,13.98
2022-10-11T07:32:52.603Z,14.36
2022-10-11T07:35:19.894Z,14.54
2022-10-11T07:37:46.724Z,14.71
2022-10-11T07:40:13.899Z,14.81
2022-10-11T07:42:40.714Z,14.89
2022-10-11T07:45:07.885Z,15.31
2022-10-11T07:47:35.013Z,15.25
2022-10-11T07:50:02.273Z,15.39
2022-10-11T07:52:29.199Z,15.58
2022-10-11T07:54:55.989Z,15.59
2022-10-11T07:57:22.825Z,15.86
2022-10-11T07:59:50.463Z,16.17
2022-10-11T08:02:17.296Z,16.22
2022-10-11T08:04:44.276Z,16.48
2022-10-11T08:07:11.118Z,16.99
2022-10-11T08:09:38.017Z,17.62
2022-10-11T08:12:04.931Z,17.75
2022-10-11T08:14:31.742Z,18.05
2022-10-11T08:17:00.254Z,18.21
2022-10-11T08:19:27.207Z,18.21
2022-10-11T08:21:54.064Z,17.89
2022-10-11T08:24:21.127Z,17.76
2022-10-11T08:26:48.287Z,17.26
2022-10-11T08:29:15.699Z,17.28
2022-10-11T08:31:44.533Z,17.36
2022-10-11T08:34:11.795Z,17.46
2022-10-11T08:36:39.376Z,18.01
2022-10-11T08:39:08.596Z,18.20
2022-10-11T08:41:47.838Z,18.06
2022-10-11T08:47:42.857Z,18.67
2022-10-11T08:50:19.846Z,18.74
2022-10-11T08:52:53.127Z,18.95
2022-10-11T08:55:35.006Z,19.16
2022-10-11T08:58:02.525Z,19.17
2022-10-11T09:00:32.922Z,19.26
2022-10-11T09:03:09.261Z,19.18
2022-10-11T09:05:51.817Z,19.66
2022-10-11T09:08:41.895Z,19.91
2022-10-11T09:11:36.087Z,19.77
2022-10-11T09:14:19.418Z,20.19
2022-10-11T09:16:58.419Z,20.04
2022-10-11T09:19:25.492Z,19.99
2022-10-11T09:22:16.989Z,19.40
2022-10-11T09:25:06.862Z,19.71
2022-10-11T09:28:01.792Z,19.65
2022-10-11T09:30:27.993Z,19.56
2022-10-11T09:33:17.657Z,19.30
2022-10-11T09:35:47.707Z,19.12
2022-10-11T09:38:41.153Z,18.85
2022-10-11T09:41:11.941Z,18.80
2022-10-11T09:43:39.551Z,18.88
2022-10-11T09:46:23.771Z,18.57
2022-10-11T09:48:52.251Z,18.99
2022-10-11T09:51:22.508Z,18.97
2022-10-11T09:53:55.567Z,19.01
2022-10-11T09:56:25.245Z,19.08
2022-10-11T09:59:20.208Z,19.57
2022-10-11T10:01:47.149Z,19.99
2022-10-11T10:04:19.951Z,19.90
2022-10-11T10:06:47.103Z,20.20
2022-10-11T10:09:26.327Z,20.21
2022-10-11T10:11:55.425Z,20.49
2022-10-11T10:14:30.670Z,19.82
2022-10-11T10:17:07.106Z,20.07
2022-10-11T10:19:47.052Z,20.74
2022-10-11T10:22:28.045Z,20.61
2022-10-11T10:24:56.815Z,20.59
2022-10-11T10:27:26.625Z,20.87
2022-10-11T10:30:08.718Z,21.02
2022-10-11T10:33:02.799Z,21.00
2022-10-11T10:35:33.682Z,20.62
2022-10-11T10:38:11.159Z,20.34
2022-10-11T10:40:43.314Z,20.29
2022-10-11T10:43:15.738Z,20.75
2022-10-11T10:46:01.137Z,20.89
2022-10-11T10:51:57.929Z,20.54
2022-10-11T10:54:51.183Z,20.96
2022-10-11T10:57:43.543Z,21.60
2022-10-11T11:00:15.499Z,21.21
2022-10-11T11:02:49.942Z,21.70
2022-10-11T11:05:53.751Z,22.01
2022-10-11T11:08:50.247Z,22.41
2022-10-11T11:11:43.214Z,22.48
2022-10-11T11:14:15.962Z,22.18
2022-10-11T11:17:23.601Z,22.51
2022-10-11T11:19:59.205Z,22.37
2022-10-11T11:23:08.441Z,22.96
2022-10-11T11:25:57.056Z,23.33
2022-10-11T11:28:46.902Z,23.58
2022-10-11T11:31:44.614Z,22.99
2022-10-11T11:34:28.794Z,24.10
2022-10-11T11:36:57.654Z,23.99
2022-10-11T11:39:35.634Z,24.77
2022-10-11T11:42:26.613Z,25.18
2022-10-11T11:44:53.774Z,25.59
2022-10-11T11:47:33.131Z,26.32
2022-10-11T11:50:05.878Z,26.60
2022-10-11T11:52:37.512Z,26.31
2022-10-11T11:55:34.858Z,26.73
2022-10-11T11:58:20.478Z,26.61
2022-10-11T12:01:30.276Z,27.60
2022-10-11T12:04:04.843Z,28.24
2022-10-11T12:06:47.706Z,28.58
2022-10-11T12:09:22.883Z,28.29
2022-10-11T12:11:59.751Z,28.64
2022-10-11T12:14:39.996Z,29.29
2022-10-11T12:17:12.099Z,27.70
2022-10-11T12:19:42.094Z,26.24
2022-10-11T12:22:27.751Z,26.81
2022-10-11T12:25:00.308Z,26.59
2022-10-11T12:27:40.841Z,27.29
2022-10-11T12:30:43.143Z,28.54
2022-10-11T12:33:32.945Z,27.83
2022-10-11T12:36:07.329Z,27.92
2022-10-11T12:38:40.187Z,27.68
2022-10-11T12:41:09.963Z,28.31
2022-10-11T12:44:15.659Z,28.69
2022-10-11T12:46:57.799Z,29.07
2022-10-11T12:49:36.261Z,29.15
2022-10-11T12:52:18.025Z,29.49
2022-10-11T12:55:03.712Z,28.70
2022-10-11T12:57:53.934Z,27.54
2022-10-11T13:00:26.319Z,28.65
2022-10-11T13:02:53.567Z,29.22
2022-10-11T13:05:23.441Z,29.32
2022-10-11T13:07:53.017Z,27.80
2022-10-11T13:10:26.169Z,28.23
2022-10-11T13:12:54.167Z,29.00
2022-10-11T13:15:24.491Z,28.97
2022-10-11T13:17:58.365Z,28.60
2022-10-11T13:20:28.337Z,28.35
2022-10-11T13:22:56.560Z,28.70
2022-10-11T13:25:26.415Z,27.98
2022-10-11T13:27:55.883Z,28.16
2022-10-11T13:30:25.546Z,28.90
2022-10-11T13:32:53.347Z,28.21
2022-10-11T13:35:30.922Z,28.16
2022-10-11T13:37:58.437Z,27.23
2022-10-11T13:40:26.183Z,27.92
2022-10-11T13:42:55.064Z,27.73
2022-10-11T13:45:24.912Z,27.15
2022-10-11T13:47:53.748Z,27.85
2022-10-11T13:50:32.079Z,28.21
2022-10-11T13:53:01.721Z,28.45
2022-10-11T13:55:56.469Z,28.19
2022-10-11T13:58:41.332Z,28.24
2022-10-11T14:01:22.610Z,28.39
2022-10-11T14:03:59.231Z,28.20
2022-10-11T14:06:44.663Z,28.38
2022-10-11T14:09:26.304Z,27.48
2022-10-11T14:11:54.833Z,26.79
2022-10-11T14:14:51.215Z,26.30
2022-10-11T14:17:32.093Z,25.03
2022-10-11T14:20:11.494Z,24.95
2022-10-11T14:22:38.780Z,24.78
2022-10-11T14:25:05.929Z,24.40
2022-10-11T14:27:32.912Z,24.43
2022-10-11T14:30:23.962Z,24.30
2022-10-11T14:32:49.126Z,24.04
2022-10-11T14:35:25.448Z,23.61
2022-10-11T14:37:52.994Z,23.33
2022-10-11T14:40:22.931Z,23.11
2022-10-11T14:42:50.178Z,22.82
2022-10-11T14:45:18.131Z,22.74
2022-10-11T14:47:45.373Z,22.76
2022-10-11T14:50:39.159Z,22.71
2022-10-11T14:53:08.114Z,22.20
2022-10-11T14:55:37.434Z,22.36
2022-10-11T14:58:08.081Z,22.34
2022-10-11T15:00:36.320Z,22.32
2022-10-11T15:03:05.294Z,22.26
2022-10-11T15:05:34.201Z,22.18
2022-10-11T15:08:03.310Z,22.02
2022-10-11T15:10:37.580Z,21.99
2022-10-11T15:13:06.994Z,21.93
2022-10-11T15:15:38.063Z,21.85
2022-10-11T15:18:06.604Z,21.50
2022-10-11T15:20:46.404Z,21.54
2022-10-11T15:23:13.849Z,21.46
2022-10-11T15:25:41.687Z,21.34
2022-10-11T15:28:19.327Z,21.23
2022-10-11T15:30:46.679Z,21.16
2022-10-11T15:33:13.472Z,21.12
2022-10-11T15:35:40.291Z,21.11
2022-10-11T15:38:15.921Z,21.02
2022-10-11T15:40:42.870Z,20.77
2022-10-11T15:43:09.713Z,20.61
2022-10-11T15:45:36.836Z,20.58
2022-10-11T15:48:03.758Z,20.57
2022-10-11T15:50:41.499Z,20.53
2022-10-11T15:53:14.291Z,20.47
2022-10-11T15:55:49.846Z,20.41
2022-10-11T15:58:21.004Z,20.18
2022-10-11T16:00:49.556Z,19.92
2022-10-11T16:03:18.058Z,19.76
2022-10-11T16:05:45.086Z,19.57
2022-10-11T16:08:12.439Z,19.40
2022-10-11T16:10:40.101Z,19.28
2022-10-11T16:13:07.904Z,19.10
2022-10-11T16:15:37.833Z,18.98
2022-10-11T16:18:06.050Z,18.77
2022-10-11T16:20:36.078Z,18.71
2022-10-11T16:23:02.895Z,18.67
2022-10-11T16:25:29.747Z,18.53
2022-10-11T16:27:56.539Z,18.46
2022-10-11T16:30:23.450Z,18.37
2022-10-11T16:32:50.483Z,18.30
2022-10-11T16:35:17.753Z,18.24
2022-10-11T16:37:44.823Z,18.22
2022-10-11T16:40:17.548Z,18.19
2022-10-11T16:42:46.026Z,18.12
2022-10-11T16:45:14.488Z,18.04
2022-10-11T16:47:42.652Z,17.98
2022-10-11T16:50:11.130Z,17.97
2022-10-11T16:52:37.977Z,17.85
2022-10-11T16:55:05.741Z,17.69
2022-10-11T16:57:32.630Z,17.61
2022-10-11T16:59:59.661Z,17.58
2022-10-11T17:02:32.170Z,17.46
2022-10-11T17:04:59.587Z,17.42
2022-10-11T17:07:26.948Z,17.31
2022-10-11T17:09:53.718Z,17.20
2022-10-11T17:12:23.499Z,17.15
2022-10-11T17:14:51.321Z,17.17
2022-10-11T17:17:19.592Z,17.07
2022-10-11T17:19:47.710Z,17.02
2022-10-11T17:22:17.735Z,16.86
2022-10-11T17:24:45.084Z,16.82
2022-10-11T17:27:12.722Z,16.79
2022-10-11T17:29:39.880Z,16.82
2022-10-11T17:32:07.553Z,16.74
2022-10-11T17:34:35.405Z,16.69
2022-10-11T17:37:02.749Z,16.74
2022-10-11T17:39:30.923Z,16.74
2022-10-11T17:41:58.208Z,16.62
2022-10-11T17:44:25.058Z,16.72
2022-10-11T17:46:52.192Z,16.70
2022-10-11T17:49:19.276Z,16.58
2022-10-11T17:51:46.399Z,16.65
2022-10-11T17:54:13.411Z,16.74
2022-10-11T17:56:42.164Z,16.67
2022-10-11T17:59:27.819Z,16.68
2022-10-11T18:01:54.841Z,16.55
2022-10-11T18:04:23.216Z,16.49
2022-10-11T18:06:50.848Z,16.51
2022-10-11T18:09:20.097Z,16.52
2022-10-11T18:11:48.403Z,16.41
2022-10-11T18:14:15.767Z,16.37
2022-10-11T18:16:43.586Z,16.34
2022-10-11T18:19:13.908Z,16.20
2022-10-11T18:21:41.994Z,15.86
2022-10-11T18:24:15.299Z,15.76
2022-10-11T18:26:43.770Z,15.74
2022-10-11T18:29:12.520Z,15.59
2022-10-11T18:31:43.610Z,15.72
2022-10-11T18:34:13.057Z,15.72
2022-10-11T18:36:40.500Z,15.65
2022-10-11T18:39:10.975Z,15.61
2022-10-11T18:41:39.139Z,15.69
2022-10-11T18:44:09.116Z,15.66
2022-10-11T18:46:36.787Z,15.58
2022-10-11T18:49:04.619Z,15.69
2022-10-11T18:51:37.731Z,15.65
2022-10-11T18:54:07.486Z,15.66
2022-10-11T18:56:37.083Z,15.66
2022-10-11T18:59:05.017Z,15.62
2022-10-11T19:01:39.372Z,15.55
2022-10-11T19:04:09.303Z,15.53
2022-10-11T19:06:39.829Z,15.51
2022-10-11T19:09:13.287Z,15.40
2022-10-11T19:11:42.158Z,15.41
2022-10-11T19:14:12.493Z,15.41
2022-10-11T19:16:42.118Z,15.38
2022-10-11T19:19:11.911Z,15.37
2022-10-11T19:21:39.921Z,15.29
2022-10-11T19:24:07.904Z,15.25
2022-10-11T19:26:37.635Z,15.18
2022-10-11T19:29:12.015Z,15.15
2022-10-11T19:31:45.641Z,15.01
2022-10-11T19:34:13.353Z,14.92
2022-10-11T19:36:44.393Z,14.89
2022-10-11T19:39:14.254Z,14.81
2022-10-11T19:41:42.101Z,14.79
2022-10-11T19:44:09.932Z,14.79
2022-10-11T19:46:50.845Z,14.77
2022-10-11T19:49:23.963Z,14.72
2022-10-11T19:51:52.081Z,14.70
2022-10-11T19:54:19.876Z,14.46
2022-10-11T19:56:46.996Z,14.54
2022-10-11T19:59:14.693Z,14.63
2022-10-11T20:01:43.303Z,14.50
2022-10-11T20:04:27.768Z,14.50
2022-10-11T20:06:59.840Z,14.53
2022-10-11T20:09:30.793Z,14.58
2022-10-11T20:11:58.647Z,14.64
2022-10-11T20:14:25.726Z,14.57
2022-10-11T20:16:52.916Z,14.51
2022-10-11T20:19:20.221Z,14.56
2022-10-11T20:21:47.823Z,14.48
2022-10-11T20:24:14.764Z,14.48
2022-10-11T20:26:41.670Z,14.50
2022-10-11T20:29:08.647Z,14.40
2022-10-11T20:31:40.842Z,14.34
2022-10-11T20:34:08.192Z,14.30
2022-10-11T20:36:36.573Z,14.17
2022-10-11T20:39:05.205Z,14.00
2022-10-11T20:41:39.883Z,13.98
2022-10-11T20:44:07.741Z,13.80
2022-10-11T20:46:37.671Z,13.63
2022-10-11T20:49:07.753Z,13.60
2022-10-11T20:51:36.539Z,13.41
2022-10-11T20:54:04.746Z,13.52
2022-10-11T20:56:32.483Z,13.50
2022-10-11T20:58:59.841Z,13.49
2022-10-11T21:01:30.102Z,13.47
2022-10-11T21:03:58.474Z,13.45
2022-10-11T21:06:26.303Z,13.35
2022-10-11T21:08:55.998Z,13.19
2022-10-11T21:11:27.740Z,13.21
2022-10-11T21:13:59.106Z,13.22
2022-10-11T21:16:27.084Z,13.25
2022-10-11T21:18:57.074Z,13.34
2022-10-11T21:21:24.797Z,13.29
2022-10-11T21:24:10.309Z,13.23
2022-10-11T21:26:37.467Z,13.16
2022-10-11T21:29:04.665Z,13.24
2022-10-11T21:31:34.445Z,13.18
2022-10-11T21:34:02.368Z,13.11
2022-10-11T21:36:29.114Z,13.12
2022-10-11T21:38:56.440Z,13.01
2022-10-11T21:41:30.077Z,12.95
2022-10-11T21:43:57.818Z,12.93
2022-10-11T21:46:53.967Z,12.77
2022-10-11T21:49:17.594Z,12.77
2022-10-11T21:51:45.249Z,12.71
2022-10-11T21:54:12.167Z,12.69
2022-10-11T21:56:38.981Z,12.61
2022-10-11T21:59:09.406Z,12.55
2022-10-11T22:01:39.464Z,12.46
2022-10-11T22:04:09.329Z,12.51
2022-10-11T22:06:37.360Z,12.42
2022-10-11T22:09:05.760Z,12.43
2022-10-11T22:11:32.631Z,12.44
2022-10-11T22:13:59.646Z,12.30
2022-10-11T22:16:26.475Z,12.28
2022-10-11T22:18:54.068Z,12.22
2022-10-11T22:21:23.494Z,12.10
2022-10-11T22:23:52.760Z,12.00
2022-10-11T22:26:25.498Z,12.04
2022-10-11T22:28:53.513Z,11.98
2022-10-11T22:31:21.439Z,11.88
2022-10-11T22:33:49.162Z,11.90
2022-10-11T22:36:17.265Z,11.97
2022-10-11T22:38:44.434Z,11.92
2022-10-11T22:41:11.739Z,11.84
2022-10-11T22:43:39.056Z,11.93
2022-10-11T22:46:06.435Z,11.93
2022-10-11T22:48:33.558Z,11.96
2022-10-11T22:51:00.792Z,11.97
2022-10-11T22:53:27.777Z,11.96
2022-10-11T22:55:54.796Z,11.99
2022-10-11T22:58:21.625Z,12.04
2022-10-11T23:00:48.451Z,12.05
2022-10-11T23:03:16.908Z,12.10
2022-10-11T23:05:44.026Z,12.08
2022-10-11T23:08:10.892Z,11.96
2022-10-11T23:10:40.873Z,12.06
2022-10-11T23:13:07.701Z,12.01
2022-10-11T23:15:34.559Z,12.00
2022-10-11T23:18:01.469Z,11.94
2022-10-11T23:20:28.309Z,11.92
2022-10-11T23:22:55.131Z,11.93
2022-10-11T23:25:22.002Z,11.88
2022-10-11T23:27:48.779Z,11.85
2022-10-11T23:30:15.749Z,11.92
2022-10-11T23:32:42.594Z,11.95
2022-10-11T23:35:09.442Z,12.02
2022-10-11T23:37:36.540Z,11.88
2022-10-11T23:40:04.730Z,11.97
2022-10-11T23:42:31.645Z,11.91
2022-10-11T23:44:58.475Z,11.73
2022-10-11T23:47:25.225Z,11.83
2022-10-11T23:49:52.868Z,11.84
2022-10-11T23:52:19.736Z,11.84
2022-10-11T23:54:46.609Z,11.74
2022-10-11T23:57:13.561Z,11.80
2022-10-11T23:59:40.395Z,11.78
